createdAt,value
2019-02-25T00:00:45.321Z,14.27
2019-02-25T00:05:49.662Z,12.40
2019-02-25T00:10:54.046Z,12.73
2019-02-25T00:15:58.420Z,12.13
2019-02-25T00:21:02.821Z,12.00
2019-02-25T00:26:07.175Z,13.33
2019-02-25T00:31:11.549Z,10.40
2019-02-25T00:36:15.926Z,11.57
2019-02-25T00:41:20.343Z,11.07
2019-02-25T00:46:24.744Z,14.07
2019-02-25T00:51:29.074Z,8.70
2019-02-25T00:56:33.433Z,8.88
2019-02-25T01:01:37.835Z,9.30
2019-02-25T01:06:42.197Z,9.00
2019-02-25T01:11:46.561Z,10.10
2019-02-25T01:16:50.995Z,10.23
2019-02-25T01:21:55.354Z,10.10
2019-02-25T01:26:59.706Z,12.10
2019-02-25T01:32:04.048Z,9.97
2019-02-25T01:37:08.403Z,14.03
2019-02-25T01:42:12.811Z,12.23
2019-02-25T01:47:17.201Z,10.30
2019-02-25T01:52:21.589Z,9.53
2019-02-25T01:57:25.953Z,8.03
2019-02-25T02:02:30.330Z,9.23
2019-02-25T02:07:34.705Z,9.53
2019-02-25T02:12:39.115Z,10.90
2019-02-25T02:17:43.482Z,9.90
2019-02-25T02:22:47.842Z,9.87
2019-02-25T02:27:52.197Z,10.07
2019-02-25T02:32:57.721Z,11.17
2019-02-25T02:38:02.070Z,9.57
2019-02-25T02:43:06.783Z,9.40
2019-02-25T02:48:20.332Z,9.27
2019-02-25T02:53:24.680Z,9.63
2019-02-25T02:58:29.033Z,12.57
2019-02-25T03:03:33.454Z,11.67
2019-02-25T03:08:37.790Z,12.00
2019-02-25T03:13:42.159Z,14.13
2019-02-25T03:18:46.554Z,10.40
2019-02-25T03:23:50.937Z,9.63
2019-02-25T03:28:55.300Z,9.73
2019-02-25T03:33:59.660Z,10.38
2019-02-25T03:39:05.688Z,8.70
2019-02-25T03:44:10.139Z,10.27
2019-02-25T03:49:14.486Z,10.60
2019-02-25T03:54:18.896Z,11.87
2019-02-25T03:59:23.286Z,9.28
2019-02-25T04:04:27.754Z,9.90
2019-02-25T04:09:32.441Z,10.78
2019-02-25T04:14:36.988Z,9.77
2019-02-25T04:19:41.353Z,13.30
2019-02-25T04:24:45.687Z,9.93
2019-02-25T04:29:50.083Z,13.90
2019-02-25T04:34:55.491Z,11.83
2019-02-25T04:39:59.880Z,11.03
2019-02-25T04:45:06.646Z,12.33
2019-02-25T04:50:12.155Z,10.90
2019-02-25T04:55:16.511Z,12.10
2019-02-25T05:00:23.292Z,10.43
2019-02-25T05:05:27.619Z,12.20
2019-02-25T05:10:32.000Z,12.87
2019-02-25T05:15:37.806Z,13.25
2019-02-25T05:20:42.329Z,11.80
2019-02-25T05:25:46.713Z,11.67
2019-02-25T05:30:51.550Z,10.77
2019-02-25T05:35:57.573Z,12.50
2019-02-25T05:41:01.952Z,11.53
2019-02-25T05:46:06.435Z,10.60
2019-02-25T05:51:11.589Z,12.43
2019-02-25T05:56:16.272Z,11.33
2019-02-25T06:01:20.680Z,13.20
2019-02-25T06:06:25.063Z,15.13
2019-02-25T06:11:29.410Z,10.37
2019-02-25T06:16:33.800Z,12.30
2019-02-25T06:21:38.280Z,13.27
2019-02-25T06:26:43.636Z,12.77
2019-02-25T06:31:48.179Z,14.37
2019-02-25T06:36:53.121Z,11.67
2019-02-25T06:41:57.608Z,10.67
2019-02-25T06:47:02.039Z,14.17
2019-02-25T06:52:06.416Z,15.20
2019-02-25T06:57:10.764Z,14.63
2019-02-25T07:02:15.157Z,14.37
2019-02-25T07:07:21.156Z,14.87
2019-02-25T07:12:32.975Z,18.67
2019-02-25T07:17:57.048Z,11.93
2019-02-25T07:23:06.000Z,14.07
2019-02-25T07:28:28.332Z,11.40
2019-02-25T07:33:34.377Z,13.87
2019-02-25T07:38:40.418Z,10.73
2019-02-25T07:43:55.417Z,15.87
2019-02-25T07:49:16.693Z,14.17
2019-02-25T07:54:25.400Z,20.00
2019-02-25T07:59:31.509Z,14.83
2019-02-25T08:04:43.428Z,15.03
2019-02-25T08:09:50.495Z,18.80
2019-02-25T08:14:56.649Z,15.43
2019-02-25T08:20:19.123Z,16.23
2019-02-25T08:25:25.143Z,17.37
2019-02-25T08:30:31.131Z,15.72
2019-02-25T08:36:04.730Z,16.77
2019-02-25T08:41:12.435Z,14.90
2019-02-25T08:46:27.696Z,13.67
2019-02-25T08:51:32.136Z,14.33
2019-02-25T08:56:36.612Z,14.15
2019-02-25T09:01:40.957Z,12.53
2019-02-25T09:06:45.375Z,12.07
2019-02-25T09:11:49.743Z,14.13
2019-02-25T09:16:54.157Z,14.63
2019-02-25T09:21:58.581Z,13.17
2019-02-25T09:27:02.957Z,11.87
2019-02-25T09:32:07.327Z,13.20
2019-02-25T09:37:11.790Z,15.97
2019-02-25T09:42:16.135Z,13.77
2019-02-25T09:47:20.593Z,12.07
2019-02-25T09:52:24.968Z,13.43
2019-02-25T09:57:29.367Z,12.63
2019-02-25T10:02:34.691Z,11.67
2019-02-25T10:07:39.099Z,12.43
2019-02-25T10:12:43.437Z,11.30
2019-02-25T10:17:47.829Z,14.73
2019-02-25T10:22:52.171Z,10.50
2019-02-25T10:27:56.555Z,15.53
2019-02-25T10:33:00.984Z,11.20
2019-02-25T10:38:05.515Z,9.37
2019-02-25T10:43:09.901Z,8.10
2019-02-25T10:48:15.218Z,9.73
2019-02-25T10:53:22.114Z,9.03
2019-02-25T10:58:26.964Z,9.97
2019-02-25T11:03:32.512Z,7.73
2019-02-25T11:08:39.469Z,9.23
2019-02-25T11:13:44.187Z,8.57
2019-02-25T11:18:50.670Z,9.13
2019-02-25T11:23:54.952Z,8.90
2019-02-25T11:28:59.277Z,6.07
2019-02-25T11:34:05.595Z,7.53
2019-02-25T11:39:09.911Z,7.40
2019-02-25T11:44:14.304Z,5.43
2019-02-25T11:49:18.721Z,6.00
2019-02-25T11:54:23.098Z,8.27
2019-02-25T11:59:27.518Z,6.77
2019-02-25T12:04:32.408Z,6.42
2019-02-25T12:09:36.772Z,7.33
2019-02-25T12:14:41.145Z,7.70
2019-02-25T12:19:46.584Z,5.87
2019-02-25T12:24:51.062Z,9.30
2019-02-25T12:29:55.420Z,7.10
2019-02-25T12:34:59.771Z,8.73
2019-02-25T12:40:06.433Z,7.17
2019-02-25T12:45:14.938Z,7.60
2019-02-25T12:50:19.939Z,9.17
2019-02-25T12:55:24.315Z,7.23
2019-02-25T13:00:28.797Z,8.33
2019-02-25T13:05:33.182Z,7.60
2019-02-25T13:10:37.597Z,8.50
2019-02-25T13:15:41.987Z,8.47
2019-02-25T13:20:46.416Z,9.23
2019-02-25T13:25:50.793Z,7.93
2019-02-25T13:30:55.140Z,9.80
2019-02-25T13:35:59.525Z,7.07
2019-02-25T13:41:03.862Z,8.03
2019-02-25T13:46:08.257Z,10.57
2019-02-25T13:51:12.582Z,6.57
2019-02-25T13:56:16.988Z,8.67
2019-02-25T14:01:21.400Z,7.30
2019-02-25T14:06:25.839Z,8.17
2019-02-25T14:11:30.209Z,8.63
2019-02-25T14:16:34.609Z,7.50
2019-02-25T14:21:39.071Z,6.20
2019-02-25T14:26:43.418Z,5.67
2019-02-25T14:31:51.016Z,8.40
2019-02-25T14:36:56.807Z,7.20
2019-02-25T14:42:01.832Z,6.40
2019-02-25T14:47:19.292Z,6.70
2019-02-25T14:52:13.124Z,6.57
2019-02-25T14:57:17.488Z,6.33
2019-02-25T15:02:21.919Z,9.97
2019-02-25T15:07:26.319Z,6.40
2019-02-25T15:12:32.127Z,11.87
2019-02-25T15:17:36.788Z,6.27
2019-02-25T15:22:42.472Z,6.20
2019-02-25T15:27:48.118Z,6.73
2019-02-25T15:32:55.596Z,6.30
2019-02-25T15:38:00.424Z,9.33
2019-02-25T15:43:15.091Z,9.57
2019-02-25T15:48:22.603Z,7.63
2019-02-25T15:53:27.485Z,7.80
2019-02-25T15:58:32.025Z,11.90
2019-02-25T16:03:37.162Z,7.87
2019-02-25T16:08:47.511Z,10.47
2019-02-25T16:13:53.191Z,8.67
2019-02-25T16:18:57.183Z,10.43
2019-02-25T16:24:04.207Z,8.30
2019-02-25T16:29:09.130Z,8.00
2019-02-25T16:34:16.440Z,10.13
2019-02-25T16:39:22.188Z,8.57
2019-02-25T16:44:26.594Z,10.67
2019-02-25T16:49:31.695Z,7.83
2019-02-25T16:54:38.041Z,11.77
2019-02-25T16:59:42.427Z,9.85
2019-02-25T17:04:46.978Z,13.30
2019-02-25T17:09:51.371Z,12.07
2019-02-25T17:14:55.776Z,14.87
2019-02-25T17:20:00.185Z,13.72
2019-02-25T17:25:08.191Z,18.43
2019-02-25T17:30:19.593Z,23.87
2019-02-25T17:35:26.599Z,14.57
2019-02-25T17:40:31.248Z,13.17
2019-02-25T17:45:37.324Z,17.33
2019-02-25T17:50:42.002Z,13.70
2019-02-25T17:55:46.335Z,13.23
2019-02-25T18:00:50.858Z,16.17
2019-02-25T18:05:56.827Z,11.13
2019-02-25T18:11:01.402Z,11.00
2019-02-25T18:16:07.985Z,16.60
2019-02-25T18:21:13.710Z,14.40
2019-02-25T18:26:18.217Z,14.57
2019-02-25T18:31:22.638Z,15.53
2019-02-25T18:36:28.824Z,11.63
2019-02-25T18:41:34.310Z,13.00
2019-02-25T18:46:38.858Z,15.63
2019-02-25T18:51:43.310Z,22.17
2019-02-25T18:56:47.686Z,19.10
2019-02-25T19:01:54.097Z,19.97
2019-02-25T19:06:59.786Z,15.73
2019-02-25T19:12:04.908Z,15.10
2019-02-25T19:17:09.296Z,22.47
2019-02-25T19:22:15.811Z,27.83
2019-02-25T19:27:19.979Z,23.73
2019-02-25T19:32:24.392Z,19.17
2019-02-25T19:37:31.103Z,22.13
2019-02-25T19:42:36.402Z,27.10
2019-02-25T19:47:43.146Z,23.87
2019-02-25T19:52:47.109Z,22.90
2019-02-25T19:57:51.513Z,21.53
2019-02-25T20:03:05.750Z,22.77
2019-02-25T20:08:08.401Z,22.57
2019-02-25T20:13:12.840Z,21.43
2019-02-25T20:18:18.349Z,27.50
2019-02-25T20:23:24.969Z,21.60
2019-02-25T20:28:29.274Z,22.77
2019-02-25T20:33:35.174Z,18.93
2019-02-25T20:38:40.120Z,18.17
2019-02-25T20:43:47.299Z,21.50
2019-02-25T20:48:52.705Z,21.37
2019-02-25T20:53:58.804Z,20.57
2019-02-25T20:59:05.450Z,21.10
2019-02-25T21:04:11.359Z,25.17
2019-02-25T21:09:15.655Z,20.20
2019-02-25T21:14:20.162Z,21.53
2019-02-25T21:19:24.552Z,24.27
2019-02-25T21:24:31.033Z,23.60
2019-02-25T21:29:38.332Z,22.63
2019-02-25T21:34:41.288Z,24.80
2019-02-25T21:39:45.661Z,20.60
2019-02-25T21:44:50.714Z,19.97
2019-02-25T21:49:58.742Z,17.57
2019-02-25T21:55:04.686Z,23.37
2019-02-25T22:00:14.963Z,19.17
2019-02-25T22:05:21.360Z,15.00
2019-02-25T22:10:26.021Z,16.70
2019-02-25T22:15:30.508Z,16.97
2019-02-25T22:20:37.642Z,14.97
2019-02-25T22:25:41.003Z,16.77
2019-02-25T22:30:47.381Z,13.40
2019-02-25T22:35:51.961Z,15.47
2019-02-25T22:40:59.419Z,16.55
2019-02-25T22:46:04.767Z,15.00
2019-02-25T22:51:08.859Z,14.90
2019-02-25T22:56:15.431Z,18.20
2019-02-25T23:01:19.404Z,15.37
2019-02-25T23:06:25.387Z,14.23
2019-02-25T23:11:29.921Z,18.27
2019-02-25T23:16:34.292Z,18.90
2019-02-25T23:21:39.536Z,25.82
2019-02-25T23:26:43.897Z,17.37
2019-02-25T23:31:48.574Z,17.43
2019-02-25T23:36:54.407Z,19.83
2019-02-25T23:42:00.678Z,16.93
2019-02-25T23:47:07.118Z,14.70
2019-02-25T23:52:11.448Z,13.60
2019-02-25T23:57:17.305Z,17.43
